Time;durP1;ratioP1;P1;durP2;ratioP2;P2;SDS_P1;SDS_P2;PMS_P1;PMS_P2;Temp;Humidity;BMP_temperature;BMP_pressure;BME280_temperature;BME280_humidity;BME280_pressure;Samples;Min_cycle;Max_cycle;Signal;HPM_P1;HPM_P2
2020/12/21 07:36:20;;;;;;;13.85;6.03;;;10.10;99.90;;;;;;5591419;24;19944;-73
2020/12/21 07:38:46;;;;;;;18.50;6.22;;;9.80;99.90;;;;;;4786861;29;20501;-73
2020/12/21 07:41:13;;;;;;;13.65;5.88;;;9.60;99.90;;;;;;4787538;30;20063;-73
2020/12/21 07:43:42;;;;;;;15.48;6.47;;;9.70;99.90;;;;;;4787618;30;20069;-73
2020/12/21 07:46:19;;;;;;;22.48;7.22;;;9.60;99.90;;;;;;4787993;29;20039;-72
2020/12/21 07:48:46;;;;;;;11.98;5.75;;;9.50;99.90;;;;;;4787424;30;20073;-71
2020/12/21 07:51:15;;;;;;;12.60;6.00;;;9.50;99.90;;;;;;4786533;30;20031;-72
2020/12/21 07:53:41;;;;;;;19.52;5.65;;;9.50;99.90;;;;;;4786198;30;20032;-70
2020/12/21 07:56:14;;;;;;;15.57;6.13;;;9.40;99.90;;;;;;4787124;30;20067;-70
2020/12/21 07:58:39;;;;;;;23.15;3.58;;;9.40;99.90;;;;;;4787246;30;20573;-60
2020/12/21 08:01:05;;;;;;;10.95;4.03;;;13.20;99.90;;;;;;4786374;30;20106;-59
2020/12/21 08:03:31;;;;;;;10.07;3.38;;;14.90;99.90;;;;;;4790311;29;20042;-60
2020/12/21 08:06:22;;;;;;;9.38;3.78;;;15.20;99.90;;;;;;4786622;29;20095;-61
2020/12/21 08:08:49;;;;;;;9.75;3.58;;;16.00;99.90;;;;;;4786324;30;20031;-61
2020/12/21 08:11:16;;;;;;;9.70;3.38;;;16.30;99.90;;;;;;4786943;30;20576;-60
2020/12/21 08:13:46;;;;;;;11.07;4.07;;;16.80;99.90;;;;;;4787476;30;20036;-60
2020/12/21 08:16:12;;;;;;;7.93;2.83;;;17.60;99.90;;;;;;4787083;30;20023;-61
2020/12/21 08:18:38;;;;;;;8.55;3.17;;;17.90;99.90;;;;;;4786629;30;20046;-60
2020/12/21 08:21:04;;;;;;;8.50;2.80;;;17.80;99.90;;;;;;4786301;30;20079;-60
2020/12/21 08:23:31;;;;;;;13.13;4.07;;;17.10;99.90;;;;;;4786567;29;20028;-73
2020/12/21 08:25:58;;;;;;;9.88;3.40;;;14.10;99.90;;;;;;4785248;29;20027;-74
2020/12/21 08:28:43;;;;;;;7.53;3.13;;;12.90;99.90;;;;;;5002777;24;20149;-74
2020/12/21 08:31:14;;;;;;;8.57;3.65;;;12.00;99.90;;;;;;4811762;29;20074;-73
2020/12/21 08:34:04;;;;;;;10.55;3.67;;;11.50;99.90;;;;;;4820036;29;20018;-73
2020/12/21 08:36:35;;;;;;;9.65;2.75;;;10.90;99.90;;;;;;4809079;29;20059;-73
2020/12/21 08:39:16;;;;;;;11.65;4.03;;;10.80;99.90;;;;;;4824865;29;20042;-73
2020/12/21 08:41:52;;;;;;;11.85;3.55;;;10.60;99.90;;;;;;4824153;29;20030;-72
2020/12/21 08:44:24;;;;;;;9.32;3.13;;;10.50;99.90;;;;;;4824565;29;20061;-73
2020/12/21 08:46:51;;;;;;;8.82;2.50;;;10.60;99.90;;;;;;4824478;29;20130;-73
2020/12/21 08:49:17;;;;;;;10.90;2.90;;;10.40;99.90;;;;;;4824608;29;20551;-72
2020/12/21 08:51:43;;;;;;;8.93;2.83;;;10.40;99.90;;;;;;4824839;29;20037;-71
2020/12/21 08:54:09;;;;;;;12.40;4.05;;;10.30;99.90;;;;;;4825112;29;20391;-72
2020/12/21 08:56:34;;;;;;;11.68;3.45;;;10.20;99.90;;;;;;4825050;29;20153;-72
2020/12/21 08:59:00;;;;;;;10.98;3.47;;;10.20;99.90;;;;;;4824407;29;20479;-73
2020/12/21 09:01:26;;;;;;;9.32;3.08;;;10.10;99.90;;;;;;4824147;29;20026;-73
2020/12/21 09:03:51;;;;;;;9.25;2.60;;;10.20;99.90;;;;;;4821893;29;20121;-74
2020/12/21 09:06:21;;;;;;;9.93;3.17;;;10.10;99.90;;;;;;4837630;29;20151;-73
2020/12/21 09:08:48;;;;;;;6.90;2.95;;;10.10;99.90;;;;;;4823335;29;20039;-73
2020/12/21 09:11:18;;;;;;;7.93;2.60;;;10.10;99.90;;;;;;4823991;29;20027;-73
2020/12/21 09:13:45;;;;;;;6.55;2.38;;;10.10;99.90;;;;;;4820615;29;20516;-73
2020/12/21 09:16:10;;;;;;;10.05;2.58;;;10.20;99.90;;;;;;4823713;29;20036;-73
2020/12/21 09:18:36;;;;;;;10.50;2.80;;;10.20;99.90;;;;;;4823980;29;20476;-75
2020/12/21 09:21:03;;;;;;;6.85;2.85;;;10.20;99.90;;;;;;4819290;29;20038;-74
2020/12/21 09:23:29;;;;;;;8.70;2.50;;;10.20;99.90;;;;;;4809516;29;20027;-74
2020/12/21 09:25:55;;;;;;;10.15;2.67;;;10.30;99.90;;;;;;4824188;29;20151;-74
2020/12/21 09:28:20;;;;;;;9.57;2.50;;;10.20;99.90;;;;;;4820257;29;20105;-74
2020/12/21 09:30:46;;;;;;;6.28;2.58;;;10.20;99.90;;;;;;4823430;29;20048;-73
2020/12/21 09:33:12;;;;;;;7.95;2.50;;;10.20;99.90;;;;;;4822275;29;20030;-74
2020/12/21 09:35:37;;;;;;;8.88;2.50;;;10.20;99.90;;;;;;4824367;29;20036;-74
2020/12/21 09:38:03;;;;;;;8.25;2.20;;;10.20;99.90;;;;;;4823730;29;20036;-74
2020/12/21 09:40:29;;;;;;;6.68;2.00;;;10.20;99.90;;;;;;4823709;29;20096;-74
2020/12/21 09:42:54;;;;;;;9.00;2.70;;;10.20;99.90;;;;;;4823686;29;20428;-74
2020/12/21 09:45:20;;;;;;;8.05;2.63;;;10.10;99.90;;;;;;4807282;29;20038;-74
2020/12/21 09:47:45;;;;;;;6.82;2.58;;;10.30;99.90;;;;;;4823940;29;20037;-75
2020/12/21 09:50:12;;;;;;;9.40;2.38;;;10.30;99.90;;;;;;4823253;29;20494;-75
2020/12/21 09:52:38;;;;;;;7.15;2.10;;;10.40;99.90;;;;;;4810599;29;20096;-74
2020/12/21 09:55:04;;;;;;;8.55;2.33;;;10.30;99.90;;;;;;4806506;29;20597;-75
2020/12/21 09:57:29;;;;;;;6.00;1.70;;;10.40;99.90;;;;;;4807378;29;20117;-73
2020/12/21 09:59:55;;;;;;;8.82;2.10;;;10.30;99.90;;;;;;4823514;29;20039;-73
2020/12/21 10:02:21;;;;;;;7.55;1.85;;;10.20;99.90;;;;;;4823451;29;20112;-75
2020/12/21 10:04:46;;;;;;;10.48;2.17;;;10.20;99.90;;;;;;4823652;29;20374;-74
2020/12/21 10:07:12;;;;;;;8.10;2.10;;;10.20;99.90;;;;;;4823551;29;20026;-74
2020/12/21 10:09:38;;;;;;;7.05;2.10;;;10.20;99.90;;;;;;4823910;29;20498;-75
2020/12/21 10:12:04;;;;;;;5.93;2.03;;;10.20;99.90;;;;;;4823537;29;20026;-74
2020/12/21 10:14:29;;;;;;;6.88;1.98;;;10.10;99.90;;;;;;4823313;29;20031;-73
2020/12/21 10:16:55;;;;;;;8.18;2.03;;;10.10;99.90;;;;;;4823139;29;20046;-75
2020/12/21 10:19:21;;;;;;;6.28;2.13;;;10.10;99.90;;;;;;4823492;29;20068;-74
2020/12/21 10:21:47;;;;;;;5.25;2.05;;;10.20;99.90;;;;;;4822967;29;20069;-70
2020/12/21 10:24:13;;;;;;;6.95;1.85;;;10.10;99.90;;;;;;4822777;29;20129;-74
2020/12/21 10:26:40;;;;;;;5.95;1.90;;;10.10;99.90;;;;;;4823686;29;20026;-72
2020/12/21 10:29:05;;;;;;;8.38;2.45;;;10.10;99.90;;;;;;4823017;29;20132;-74
2020/12/21 10:31:31;;;;;;;7.18;2.10;;;10.20;99.90;;;;;;4822962;29;20077;-74
2020/12/21 10:33:57;;;;;;;6.32;2.03;;;10.10;99.90;;;;;;4804449;29;20035;-74
2020/12/21 10:36:22;;;;;;;6.97;1.95;;;10.10;99.90;;;;;;4819100;29;20027;-75
2020/12/21 10:38:49;;;;;;;4.57;2.00;;;10.10;99.90;;;;;;4816202;29;20046;-74
2020/12/21 10:41:16;;;;;;;6.13;2.10;;;10.10;99.90;;;;;;4823331;29;20175;-75
2020/12/21 10:43:42;;;;;;;9.13;2.25;;;10.20;99.90;;;;;;4823101;29;20145;-74
2020/12/21 10:46:08;;;;;;;9.88;2.28;;;10.10;99.90;;;;;;4822839;29;20034;-74
2020/12/21 10:48:34;;;;;;;6.10;2.00;;;10.00;99.90;;;;;;4822773;29;20052;-74
2020/12/21 10:50:59;;;;;;;7.72;2.05;;;9.90;99.90;;;;;;4822727;29;20479;-74
2020/12/21 10:53:25;;;;;;;7.65;2.15;;;9.90;99.90;;;;;;4822495;29;20450;-75
2020/12/21 10:55:51;;;;;;;4.80;1.85;;;10.00;99.90;;;;;;4822934;29;20491;-74
2020/12/21 10:58:16;;;;;;;4.63;1.95;;;10.00;99.90;;;;;;4822699;29;20031;-73
2020/12/21 11:00:42;;;;;;;6.90;2.40;;;10.00;99.90;;;;;;4823020;29;20057;-75
2020/12/21 11:03:08;;;;;;;5.82;2.10;;;10.10;99.90;;;;;;4822333;29;20065;-75
2020/12/21 11:05:33;;;;;;;8.45;2.47;;;10.00;99.90;;;;;;4822757;29;20042;-75
2020/12/21 11:07:59;;;;;;;6.93;2.28;;;10.00;99.90;;;;;;4822133;29;20056;-75
2020/12/21 11:10:26;;;;;;;4.75;2.03;;;10.00;99.90;;;;;;4807513;29;20030;-75
2020/12/21 11:12:51;;;;;;;6.95;1.90;;;10.00;99.90;;;;;;4822641;29;20033;-75
2020/12/21 11:15:17;;;;;;;5.80;1.80;;;10.00;99.90;;;;;;4822582;29;20467;-75
2020/12/21 11:17:42;;;;;;;5.28;2.20;;;9.90;99.90;;;;;;4822441;29;20511;-74
2020/12/21 11:20:08;;;;;;;8.20;2.53;;;10.00;99.90;;;;;;4822298;29;20062;-74
2020/12/21 11:22:36;;;;;;;6.15;2.33;;;10.00;99.90;;;;;;4822557;29;20026;-75
2020/12/21 11:25:02;;;;;;;5.72;2.00;;;10.00;99.90;;;;;;4822524;29;20478;-75
2020/12/21 11:27:27;;;;;;;6.63;2.20;;;9.90;99.90;;;;;;4822484;29;20066;-75
2020/12/21 11:29:53;;;;;;;7.38;2.38;;;9.90;99.90;;;;;;4822003;29;20074;-75
2020/12/21 11:32:18;;;;;;;6.82;2.15;;;9.90;99.90;;;;;;4822384;29;20045;-74
2020/12/21 11:34:44;;;;;;;7.32;2.30;;;9.90;99.90;;;;;;4821464;29;20038;-75
2020/12/21 11:37:10;;;;;;;7.65;2.50;;;9.90;99.90;;;;;;4820638;29;20087;-75
2020/12/21 11:39:35;;;;;;;5.43;2.47;;;9.90;99.90;;;;;;4822325;29;20479;-74
2020/12/21 11:42:01;;;;;;;6.50;2.55;;;9.80;99.90;;;;;;4822361;29;20026;-74
2020/12/21 11:44:27;;;;;;;7.80;2.30;;;9.90;99.90;;;;;;4822099;29;20110;-75
2020/12/21 11:46:53;;;;;;;6.30;2.10;;;10.00;99.90;;;;;;4822203;29;20027;-74
2020/12/21 11:49:18;;;;;;;6.53;2.70;;;10.00;99.90;;;;;;4821733;29;20049;-74
2020/12/21 11:51:44;;;;;;;7.85;6.25;;;10.00;99.90;;;;;;4817881;29;20030;-73
2020/12/21 11:54:10;;;;;;;12.63;6.05;;;10.00;99.90;;;;;;4821838;29;20088;-74
2020/12/21 11:56:35;;;;;;;17.13;8.48;;;9.90;99.90;;;;;;4822073;29;20092;-74
2020/12/21 11:59:01;;;;;;;8.13;3.85;;;10.00;99.90;;;;;;4821985;29;20042;-73
2020/12/21 12:01:27;;;;;;;12.18;4.38;;;9.80;99.90;;;;;;4821525;29;20038;-73
2020/12/21 12:03:52;;;;;;;37.58;12.77;;;9.80;99.90;;;;;;4821775;29;20049;-74
2020/12/21 12:06:24;;;;;;;16.17;5.90;;;9.80;99.90;;;;;;4824485;29;20291;-74
2020/12/21 12:08:50;;;;;;;17.45;5.90;;;9.90;99.90;;;;;;4808423;29;20042;-76
2020/12/21 12:11:22;;;;;;;10.15;3.95;;;9.80;99.90;;;;;;4809959;29;20031;-76
2020/12/21 12:13:50;;;;;;;13.20;5.68;;;9.90;99.90;;;;;;4820617;29;20514;-76
2020/12/21 12:16:20;;;;;;;7.82;2.65;;;9.90;99.90;;;;;;4824972;29;20034;-75
2020/12/21 12:18:46;;;;;;;6.45;2.20;;;9.90;99.90;;;;;;4825212;29;20088;-75
2020/12/21 12:21:11;;;;;;;5.63;2.28;;;9.90;99.90;;;;;;4824990;29;20035;-76
2020/12/21 12:23:37;;;;;;;10.98;3.08;;;9.90;99.90;;;;;;4825395;29;20062;-71
2020/12/21 12:26:03;;;;;;;5.28;2.92;;;9.90;99.90;;;;;;4825273;29;20050;-75
2020/12/21 12:28:28;;;;;;;5.45;2.65;;;10.00;99.90;;;;;;4809117;29;20027;-74
2020/12/21 12:30:54;;;;;;;4.30;2.00;;;10.00;99.90;;;;;;4824787;29;20062;-75
2020/12/21 12:33:19;;;;;;;7.15;2.13;;;10.00;99.90;;;;;;4820412;29;20107;-76
2020/12/21 12:35:45;;;;;;;6.00;3.03;;;9.90;99.90;;;;;;4819611;29;20034;-75
2020/12/21 12:38:11;;;;;;;5.63;2.47;;;10.00;99.90;;;;;;4824773;29;20030;-75
2020/12/21 12:40:36;;;;;;;8.63;2.38;;;10.00;99.90;;;;;;4824207;29;20108;-75
2020/12/21 12:43:02;;;;;;;3.95;2.05;;;10.00;99.90;;;;;;4808833;29;20022;-74
2020/12/21 12:45:28;;;;;;;2.50;1.48;;;10.00;99.90;;;;;;4824986;29;20382;-74
2020/12/21 12:47:53;;;;;;;7.28;1.98;;;10.10;99.90;;;;;;4824938;29;20371;-74
2020/12/21 12:50:19;;;;;;;3.38;1.60;;;10.20;99.90;;;;;;4824432;29;20033;-74
2020/12/21 12:52:44;;;;;;;3.78;1.90;;;10.20;99.90;;;;;;4824812;29;20026;-75
2020/12/21 12:55:10;;;;;;;5.05;1.58;;;10.20;99.90;;;;;;4824618;29;20026;-73
2020/12/21 12:57:36;;;;;;;3.33;1.80;;;10.20;99.90;;;;;;4824614;29;20436;-75
2020/12/21 13:00:02;;;;;;;2.40;1.42;;;10.20;99.90;;;;;;4824286;29;20435;-76
2020/12/21 13:02:28;;;;;;;2.20;1.40;;;10.20;99.90;;;;;;4824697;29;20088;-76
2020/12/21 13:04:54;;;;;;;4.97;1.75;;;10.30;99.90;;;;;;4824370;29;20437;-75
2020/12/21 13:07:19;;;;;;;4.20;1.60;;;10.30;99.90;;;;;;4824278;29;20108;-73
2020/12/21 13:09:45;;;;;;;3.28;1.70;;;10.30;99.90;;;;;;4824606;29;20035;-75
2020/12/21 13:12:10;;;;;;;2.97;1.70;;;10.30;99.90;;;;;;4813112;29;20109;-76
2020/12/21 13:14:36;;;;;;;4.45;1.50;;;10.30;99.90;;;;;;4837773;29;20522;-75
2020/12/21 13:17:02;;;;;;;4.18;1.95;;;10.40;99.90;;;;;;4823426;29;20022;-74
2020/12/21 13:19:27;;;;;;;3.10;1.23;;;10.40;99.90;;;;;;4824281;29;20395;-76
2020/12/21 13:21:53;;;;;;;2.90;1.40;;;10.40;99.90;;;;;;4824214;29;20061;-75
2020/12/21 13:24:18;;;;;;;2.00;1.35;;;10.30;99.90;;;;;;4824263;29;20053;-75
2020/12/21 13:26:49;;;;;;;3.72;1.60;;;10.30;99.90;;;;;;4824176;29;20030;-77
2020/12/21 13:29:15;;;;;;;2.13;1.20;;;10.30;99.90;;;;;;4823514;29;20034;-76
2020/12/21 13:31:40;;;;;;;3.10;1.40;;;10.20;99.90;;;;;;4823817;29;20147;-73
2020/12/21 13:34:06;;;;;;;1.42;1.10;;;10.20;99.90;;;;;;4823841;29;20499;-75
2020/12/21 13:36:31;;;;;;;2.03;1.40;;;10.20;99.90;;;;;;4823810;29;20034;-76
2020/12/21 13:38:57;;;;;;;3.05;1.75;;;10.20;99.90;;;;;;4807909;29;20030;-76
2020/12/21 13:41:23;;;;;;;3.75;2.33;;;10.30;99.90;;;;;;4823513;29;20042;-75
2020/12/21 13:43:48;;;;;;;3.42;1.73;;;10.20;99.90;;;;;;4823930;29;20034;-74
2020/12/21 13:46:14;;;;;;;2.60;1.58;;;10.30;99.90;;;;;;4823591;29;20050;-76
2020/12/21 13:48:39;;;;;;;2.58;1.80;;;10.30;99.90;;;;;;4823666;29;20026;-77
2020/12/21 13:51:11;;;;;;;3.83;2.00;;;10.30;99.90;;;;;;4823501;29;20030;-75
2020/12/21 13:53:37;;;;;;;3.80;1.60;;;10.30;99.90;;;;;;4823778;29;20369;-75
2020/12/21 13:56:03;;;;;;;3.30;1.90;;;10.30;99.90;;;;;;4823745;29;20079;-75
2020/12/21 13:58:28;;;;;;;3.92;1.80;;;10.30;99.90;;;;;;4822245;29;20049;-75
2020/12/21 14:00:54;;;;;;;3.13;2.08;;;10.30;99.90;;;;;;4812216;29;20057;-75
2020/12/21 14:03:22;;;;;;;3.47;2.00;;;10.40;99.90;;;;;;4822608;29;20034;-76
2020/12/21 14:05:47;;;;;;;2.92;1.88;;;10.30;99.90;;;;;;4822536;29;20509;-75
2020/12/21 14:08:13;;;;;;;5.03;1.92;;;10.30;99.90;;;;;;4823601;29;20039;-75
2020/12/21 14:10:39;;;;;;;2.55;2.35;;;10.30;99.90;;;;;;4823566;29;20027;-76
2020/12/21 14:13:11;;;;;;;4.78;2.13;;;10.40;99.90;;;;;;4823459;29;20065;-76
2020/12/21 14:15:36;;;;;;;2.97;2.03;;;10.30;99.90;;;;;;4823320;29;20483;-75
2020/12/21 14:18:02;;;;;;;3.85;2.30;;;10.30;99.90;;;;;;4823202;29;20109;-75
2020/12/21 14:20:27;;;;;;;3.70;1.90;;;10.30;99.90;;;;;;4823252;29;20122;-75
2020/12/21 14:22:53;;;;;;;3.25;1.80;;;10.40;99.90;;;;;;4818997;29;20429;-75
2020/12/21 14:25:20;;;;;;;2.13;1.77;;;10.40;99.90;;;;;;4822734;29;20422;-75
2020/12/21 14:27:45;;;;;;;3.40;2.10;;;10.50;99.90;;;;;;4822245;29;20105;-76
2020/12/21 14:30:11;;;;;;;5.72;2.25;;;10.50;99.90;;;;;;4822064;29;20121;-74
2020/12/21 14:32:36;;;;;;;3.70;2.30;;;10.50;99.90;;;;;;4823435;29;20030;-76
2020/12/21 14:35:02;;;;;;;3.28;2.00;;;10.60;99.90;;;;;;4823265;29;20444;-74
2020/12/21 14:37:28;;;;;;;5.30;2.10;;;10.50;99.90;;;;;;4818675;29;20045;-74
2020/12/21 14:39:54;;;;;;;3.67;2.15;;;10.50;99.90;;;;;;4823019;29;20509;-76
2020/12/21 14:42:21;;;;;;;3.90;1.65;;;10.50;99.90;;;;;;4822796;29;20038;-74
2020/12/21 14:44:46;;;;;;;2.20;1.73;;;10.60;99.90;;;;;;4822843;29;20503;-75
2020/12/21 14:47:12;;;;;;;2.63;1.95;;;10.60;99.90;;;;;;4821498;29;20165;-76
2020/12/21 14:49:37;;;;;;;3.63;2.05;;;10.70;99.90;;;;;;4822998;29;20029;-73
2020/12/21 14:52:03;;;;;;;4.28;2.25;;;10.70;99.90;;;;;;4822787;29;20113;-74
2020/12/21 14:54:29;;;;;;;3.72;2.20;;;10.70;99.90;;;;;;4823455;29;20125;-74
2020/12/21 14:56:55;;;;;;;2.42;1.90;;;10.70;99.90;;;;;;4822927;29;20122;-75
2020/12/21 14:59:21;;;;;;;3.30;2.45;;;10.70;99.90;;;;;;4822825;29;20134;-75
2020/12/21 15:01:46;;;;;;;5.53;2.30;;;10.80;99.90;;;;;;4822668;29;20034;-75
2020/12/21 15:04:12;;;;;;;2.20;1.80;;;10.80;99.90;;;;;;4822573;29;20127;-75
2020/12/21 15:06:37;;;;;;;3.40;2.10;;;10.70;99.90;;;;;;4822995;29;20022;-75
2020/12/21 15:09:03;;;;;;;3.55;2.08;;;10.80;99.90;;;;;;4822607;29;20037;-75
2020/12/21 15:11:31;;;;;;;4.30;2.05;;;10.90;99.90;;;;;;4822522;29;20042;-74
2020/12/21 15:13:59;;;;;;;4.22;2.10;;;10.80;99.90;;;;;;4822881;29;20034;-75
2020/12/21 15:16:25;;;;;;;4.75;1.85;;;10.90;99.90;;;;;;4813927;29;20022;-74
2020/12/21 15:18:50;;;;;;;2.95;2.00;;;10.90;99.90;;;;;;4821801;29;20095;-76
2020/12/21 15:21:16;;;;;;;2.58;1.80;;;10.90;99.90;;;;;;4822153;29;20030;-76
2020/12/21 15:23:42;;;;;;;2.13;1.92;;;11.00;99.90;;;;;;4822376;29;20387;-76
2020/12/21 15:26:07;;;;;;;2.75;1.98;;;11.00;99.90;;;;;;4822434;29;20062;-76
2020/12/21 15:28:33;;;;;;;3.03;1.73;;;11.00;99.90;;;;;;4822717;29;20061;-73
2020/12/21 15:30:59;;;;;;;3.47;2.03;;;11.10;99.90;;;;;;4821996;29;20513;-75
2020/12/21 15:33:24;;;;;;;2.55;1.98;;;11.10;99.90;;;;;;4805817;29;20087;-75
2020/12/21 15:35:51;;;;;;;2.17;1.63;;;11.10;99.90;;;;;;4822556;29;20034;-76
2020/12/21 15:38:17;;;;;;;6.18;1.85;;;11.20;99.90;;;;;;4822221;29;20123;-75
2020/12/21 15:40:46;;;;;;;2.30;1.65;;;11.20;99.90;;;;;;4821534;29;20038;-75
2020/12/21 15:43:12;;;;;;;2.72;1.80;;;11.20;99.90;;;;;;4818702;29;20555;-73
2020/12/21 15:45:40;;;;;;;2.10;1.83;;;11.20;99.90;;;;;;4821350;29;20069;-75
2020/12/21 15:48:05;;;;;;;2.22;1.95;;;11.20;99.90;;;;;;4821812;29;20037;-76
2020/12/21 15:50:46;;;;;;;2.70;1.70;;;11.20;99.90;;;;;;4747575;30;20064;-75
2020/12/21 15:53:12;;;;;;;2.88;1.80;;;11.20;99.90;;;;;;4743795;30;20044;-72
2020/12/21 15:55:38;;;;;;;3.40;1.98;;;11.20;99.90;;;;;;4745671;30;20557;-75
2020/12/21 15:58:04;;;;;;;2.33;2.00;;;11.30;99.90;;;;;;4740152;30;20123;-75
2020/12/21 16:00:29;;;;;;;3.38;2.17;;;11.30;99.90;;;;;;4747744;30;20129;-75
2020/12/21 16:02:55;;;;;;;2.97;2.10;;;11.30;99.90;;;;;;4744563;30;20044;-75
2020/12/21 16:05:21;;;;;;;2.30;1.88;;;11.20;99.90;;;;;;4747683;30;20077;-75
2020/12/21 16:07:47;;;;;;;4.78;2.42;;;11.30;99.90;;;;;;4744303;30;20047;-75
2020/12/21 16:10:13;;;;;;;3.20;2.20;;;11.30;99.90;;;;;;4746021;30;20028;-73
2020/12/21 16:12:40;;;;;;;4.03;2.30;;;11.30;99.90;;;;;;4746336;30;20170;-75
2020/12/21 16:15:06;;;;;;;3.80;2.78;;;11.30;99.90;;;;;;4744515;30;20116;-75
2020/12/21 16:17:32;;;;;;;2.70;2.35;;;11.40;99.90;;;;;;4747566;30;20422;-76
2020/12/21 16:19:58;;;;;;;2.85;2.30;;;11.40;99.90;;;;;;4744686;30;20086;-76
2020/12/21 16:22:24;;;;;;;3.20;2.47;;;11.50;99.90;;;;;;4744631;30;20048;-75
2020/12/21 16:24:50;;;;;;;3.33;2.80;;;11.50;99.90;;;;;;4747092;30;20044;-75
2020/12/21 16:27:15;;;;;;;3.30;3.00;;;11.50;99.90;;;;;;4759816;29;20046;-75
2020/12/21 16:29:41;;;;;;;5.90;3.00;;;11.50;99.90;;;;;;4820986;29;20034;-72
2020/12/21 16:32:07;;;;;;;3.50;2.90;;;11.50;99.90;;;;;;4821439;29;20039;-75
2020/12/21 16:34:32;;;;;;;4.05;3.20;;;11.50;99.90;;;;;;4821724;29;20029;-73
2020/12/21 16:36:58;;;;;;;3.55;3.10;;;11.50;99.90;;;;;;4820495;29;20514;-75
2020/12/21 16:39:24;;;;;;;3.42;3.13;;;11.50;99.90;;;;;;4821227;29;20031;-74
2020/12/21 16:41:55;;;;;;;4.90;3.70;;;11.60;99.90;;;;;;4821569;29;20046;-74
2020/12/21 16:44:21;;;;;;;4.90;4.25;;;11.60;99.90;;;;;;4821631;29;20030;-73
2020/12/21 16:46:46;;;;;;;4.18;3.78;;;11.70;99.90;;;;;;4820659;29;20105;-75
2020/12/21 16:49:12;;;;;;;4.65;4.25;;;11.70;99.90;;;;;;4821188;29;20129;-73
2020/12/21 16:51:47;;;;;;;4.15;3.80;;;11.70;99.90;;;;;;4821664;29;20479;-75
2020/12/21 16:54:13;;;;;;;6.10;4.20;;;11.70;99.90;;;;;;4823973;29;20093;-74
2020/12/21 16:56:39;;;;;;;4.18;3.78;;;11.70;99.90;;;;;;4824684;29;20062;-75
2020/12/21 16:59:06;;;;;;;4.80;4.40;;;11.80;99.90;;;;;;4824493;29;20087;-74
2020/12/21 17:01:32;;;;;;;4.30;3.90;;;11.80;99.90;;;;;;4823998;29;20027;-73
2020/12/21 17:03:58;;;;;;;5.22;4.72;;;11.80;99.90;;;;;;4824742;29;20035;-76
2020/12/21 17:06:23;;;;;;;6.32;4.30;;;11.80;99.90;;;;;;4823953;29;20046;-76
2020/12/21 17:08:49;;;;;;;5.15;4.63;;;11.90;99.90;;;;;;4824380;29;20046;-75
2020/12/21 17:11:15;;;;;;;4.97;4.10;;;11.90;99.90;;;;;;4824440;29;20031;-74
2020/12/21 17:13:41;;;;;;;5.97;4.38;;;11.90;99.90;;;;;;4823546;29;20039;-75
2020/12/21 17:16:06;;;;;;;4.57;4.18;;;11.90;99.90;;;;;;4824266;29;20395;-75
2020/12/21 17:18:32;;;;;;;4.72;4.32;;;12.00;99.90;;;;;;4824595;29;20079;-76
2020/12/21 17:20:58;;;;;;;5.72;4.57;;;11.90;99.90;;;;;;4824321;29;20511;-75
2020/12/21 17:23:24;;;;;;;6.15;4.85;;;11.90;99.90;;;;;;4825781;29;20030;-76
2020/12/21 17:25:49;;;;;;;6.22;5.40;;;11.90;99.90;;;;;;4825524;29;20071;-76
2020/12/21 17:28:15;;;;;;;4.97;4.57;;;11.90;99.90;;;;;;4825865;29;20070;-75
2020/12/21 17:30:41;;;;;;;5.13;4.53;;;12.00;99.90;;;;;;4825424;29;20466;-72
2020/12/21 17:33:06;;;;;;;5.75;5.18;;;12.10;99.90;;;;;;4825663;29;20035;-74
2020/12/21 17:35:32;;;;;;;5.18;4.68;;;12.10;99.90;;;;;;4825514;29;20026;-74
2020/12/21 17:37:57;;;;;;;5.60;5.05;;;12.10;99.90;;;;;;4825359;29;20121;-75
2020/12/21 17:40:23;;;;;;;5.80;5.22;;;12.10;99.90;;;;;;4825183;29;20081;-72
2020/12/21 17:42:49;;;;;;;5.70;5.13;;;12.10;99.90;;;;;;4825530;29;20046;-73
2020/12/21 17:45:15;;;;;;;5.43;4.93;;;12.10;99.90;;;;;;4825261;29;20049;-74
2020/12/21 17:51:03;;;;;;;8.77;6.18;;;12.20;99.90;;;;;;4825176;29;20051;-75
2020/12/21 17:53:29;;;;;;;4.47;2.72;;;12.20;99.90;;;;;;4825324;29;20034;-74
2020/12/21 17:55:54;;;;;;;4.03;3.63;;;12.70;99.90;;;;;;4825353;29;20030;-74
2020/12/21 17:58:20;;;;;;;7.70;3.75;;;13.10;99.90;;;;;;4825360;29;20392;-71
2020/12/21 18:00:46;;;;;;;2.40;2.08;;;13.30;99.90;;;;;;4824643;29;20038;-69
2020/12/21 18:06:35;;;;;;;4.13;2.50;;;14.40;99.90;;;;;;4825141;29;20029;-68
2020/12/21 18:09:01;;;;;;;5.18;3.42;;;14.30;99.90;;;;;;4825242;29;20117;-68
2020/12/21 18:11:26;;;;;;;5.10;4.43;;;14.50;99.90;;;;;;4825067;29;20447;-69
2020/12/21 18:13:52;;;;;;;6.57;4.60;;;14.20;99.90;;;;;;4824788;29;20030;-69
2020/12/21 18:16:18;;;;;;;3.53;3.03;;;13.80;99.90;;;;;;4825010;29;20070;-69
2020/12/21 18:18:44;;;;;;;5.18;4.53;;;13.50;99.90;;;;;;4824933;29;20091;-68
2020/12/21 18:21:09;;;;;;;4.75;4.35;;;13.40;99.90;;;;;;4824477;29;20042;-68
2020/12/21 18:23:35;;;;;;;4.32;2.55;;;13.40;99.90;;;;;;4824910;29;20033;-68
2020/12/21 18:26:01;;;;;;;4.13;3.65;;;13.80;99.90;;;;;;4824931;29;20407;-67
2020/12/21 18:28:27;;;;;;;5.68;4.65;;;13.50;99.90;;;;;;4824631;29;20022;-70
2020/12/21 18:30:53;;;;;;;3.72;3.40;;;13.40;99.90;;;;;;4824583;29;20106;-68
2020/12/21 18:36:41;;;;;;;6.57;5.05;;;13.20;99.90;;;;;;4824853;29;20041;-71
2020/12/21 18:39:07;;;;;;;7.55;6.85;;;13.40;99.90;;;;;;4824661;29;20027;-71
2020/12/21 18:41:33;;;;;;;4.63;4.22;;;13.10;99.90;;;;;;4824726;29;20347;-75
2020/12/21 18:43:58;;;;;;;8.02;6.32;;;13.30;99.90;;;;;;4824816;29;20394;-76
2020/12/21 18:46:24;;;;;;;6.65;5.88;;;13.40;99.90;;;;;;4824452;29;20034;-74
2020/12/21 18:48:50;;;;;;;5.22;4.72;;;13.50;99.90;;;;;;4824668;29;20087;-73
2020/12/21 18:51:15;;;;;;;5.50;5.00;;;13.40;99.90;;;;;;4824417;29;20027;-69
2020/12/21 18:53:41;;;;;;;7.32;5.28;;;13.30;99.90;;;;;;4824480;29;20034;-70
2020/12/21 18:56:07;;;;;;;6.03;5.50;;;13.30;99.90;;;;;;4824352;29;20031;-70
2020/12/21 18:58:37;;;;;;;6.60;5.60;;;13.40;99.90;;;;;;4824014;29;20031;-71
2020/12/21 19:01:10;;;;;;;7.47;5.78;;;13.40;99.90;;;;;;4824493;29;20090;-71
2020/12/21 19:06:58;;;;;;;6.72;5.55;;;13.40;99.90;;;;;;4824262;29;20064;-70
2020/12/21 19:09:24;;;;;;;7.45;6.75;;;13.40;99.90;;;;;;4824039;29;20034;-72
2020/12/21 19:11:51;;;;;;;6.78;5.75;;;13.50;99.90;;;;;;4824292;29;20107;-70
2020/12/21 19:14:16;;;;;;;6.45;5.85;;;13.50;99.90;;;;;;4823621;29;20030;-70
2020/12/21 19:16:42;;;;;;;7.65;5.93;;;13.50;99.90;;;;;;4823894;29;20033;-68
2020/12/21 19:19:08;;;;;;;5.75;5.10;;;13.50;99.90;;;;;;4823754;29;20400;-70
2020/12/21 19:21:35;;;;;;;8.13;5.40;;;13.50;99.90;;;;;;4823885;29;20030;-70
2020/12/21 19:24:01;;;;;;;6.20;5.20;;;13.50;99.90;;;;;;4824200;29;20027;-70
2020/12/21 19:26:26;;;;;;;8.25;6.20;;;13.60;99.90;;;;;;4823968;29;20030;-69
2020/12/21 19:28:52;;;;;;;6.50;5.60;;;13.60;99.90;;;;;;4824075;29;20114;-70
2020/12/21 19:31:18;;;;;;;6.75;5.50;;;13.60;99.90;;;;;;4823405;29;20226;-70
2020/12/21 19:37:06;;;;;;;6.70;5.35;;;13.70;99.90;;;;;;4824138;29;20114;-69
2020/12/21 19:39:31;;;;;;;6.47;5.75;;;13.70;99.90;;;;;;4823872;29;20117;-72
2020/12/21 19:41:57;;;;;;;6.28;5.00;;;13.70;99.90;;;;;;4824037;29;20038;-74
2020/12/21 19:44:27;;;;;;;5.72;5.22;;;13.70;99.90;;;;;;4823870;29;20034;-73
2020/12/21 19:53:19;;;;;;;8.13;5.80;;;13.90;99.90;;;;;;4823269;29;20034;-71
2020/12/21 19:55:44;;;;;;;6.38;5.78;;;14.00;99.90;;;;;;4822939;29;20030;-72
2020/12/21 19:58:11;;;;;;;6.25;5.75;;;14.10;99.90;;;;;;4823857;29;20126;-72
2020/12/21 20:00:37;;;;;;;6.35;5.75;;;14.00;99.90;;;;;;4823383;29;20534;-73
2020/12/21 20:03:03;;;;;;;6.60;6.00;;;14.10;99.90;;;;;;4822701;29;20193;-74
2020/12/21 20:05:28;;;;;;;5.80;5.22;;;14.10;99.90;;;;;;4823636;29;20126;-71
2020/12/21 20:07:54;;;;;;;9.25;5.68;;;14.10;99.90;;;;;;4823808;29;20031;-72
2020/12/21 20:10:20;;;;;;;5.72;5.07;;;14.20;99.90;;;;;;4823437;29;20031;-71
2020/12/21 20:12:47;;;;;;;6.28;4.97;;;14.10;99.90;;;;;;4823569;29;20049;-73
2020/12/21 20:15:13;;;;;;;6.60;4.85;;;14.20;99.90;;;;;;4823752;29;20031;-72
2020/12/21 20:17:39;;;;;;;6.00;4.22;;;14.20;99.90;;;;;;4823888;29;20034;-71
2020/12/21 20:20:10;;;;;;;4.50;4.10;;;14.20;99.90;;;;;;4823850;29;20465;-71
2020/12/21 20:22:36;;;;;;;4.80;4.32;;;14.20;99.90;;;;;;4823538;29;20038;-71
2020/12/21 20:25:04;;;;;;;6.68;4.35;;;14.20;99.90;;;;;;4823895;29;20034;-71
2020/12/21 20:27:30;;;;;;;7.18;4.97;;;14.30;99.90;;;;;;4826784;29;20035;-72
2020/12/21 20:29:56;;;;;;;5.15;4.47;;;14.30;99.90;;;;;;4826959;29;20077;-72
2020/12/21 20:32:22;;;;;;;6.28;4.85;;;14.30;99.90;;;;;;4826560;29;20360;-72
2020/12/21 20:34:47;;;;;;;4.97;4.20;;;14.30;99.90;;;;;;4826591;29;20042;-72
2020/12/21 20:37:14;;;;;;;6.38;4.75;;;14.30;99.90;;;;;;4826973;29;20034;-72
2020/12/21 20:39:40;;;;;;;5.90;5.28;;;14.50;99.90;;;;;;4827053;29;20050;-71
2020/12/21 20:42:08;;;;;;;6.35;5.18;;;14.40;99.90;;;;;;4827099;29;20026;-73